sensor_id;sensor_type;location;lat;lon;timestamp;P1;durP1;ratioP1;P2;durP2;ratioP2
18883;SDS011;9574;47.282;9.640;2023-11-19T00:00:16;7.17;;;3.40;;
18883;SDS011;9574;47.282;9.640;2023-11-19T00:02:44;8.43;;;3.57;;
18883;SDS011;9574;47.282;9.640;2023-11-19T00:05:14;8.83;;;4.20;;
18883;SDS011;9574;47.282;9.640;2023-11-19T00:07:41;6.33;;;3.13;;
18883;SDS011;9574;47.282;9.640;2023-11-19T00:10:08;8.17;;;3.03;;
18883;SDS011;9574;47.282;9.640;2023-11-19T00:12:36;6.27;;;4.00;;
18883;SDS011;9574;47.282;9.640;2023-11-19T00:15:05;8.53;;;3.53;;
18883;SDS011;9574;47.282;9.640;2023-11-19T00:17:36;9.40;;;3.43;;
18883;SDS011;9574;47.282;9.640;2023-11-19T00:20:05;6.90;;;3.73;;
18883;SDS011;9574;47.282;9.640;2023-11-19T00:22:34;9.50;;;4.10;;
18883;SDS011;9574;47.282;9.640;2023-11-19T00:25:01;9.07;;;3.87;;
18883;SDS011;9574;47.282;9.640;2023-11-19T00:27:28;7.03;;;3.37;;
18883;SDS011;9574;47.282;9.640;2023-11-19T00:29:55;5.10;;;2.57;;
18883;SDS011;9574;47.282;9.640;2023-11-19T00:32:23;3.83;;;2.60;;
18883;SDS011;9574;47.282;9.640;2023-11-19T00:34:50;4.63;;;2.03;;
18883;SDS011;9574;47.282;9.640;2023-11-19T00:37:17;3.70;;;1.83;;
18883;SDS011;9574;47.282;9.640;2023-11-19T00:39:45;2.10;;;1.90;;
18883;SDS011;9574;47.282;9.640;2023-11-19T00:42:12;1.83;;;1.73;;
18883;SDS011;9574;47.282;9.640;2023-11-19T00:44:39;3.20;;;2.27;;
18883;SDS011;9574;47.282;9.640;2023-11-19T00:47:07;9.90;;;4.13;;
18883;SDS011;9574;47.282;9.640;2023-11-19T00:49:34;7.20;;;3.70;;
18883;SDS011;9574;47.282;9.640;2023-11-19T00:52:01;12.07;;;5.80;;
18883;SDS011;9574;47.282;9.640;2023-11-19T00:54:28;5.67;;;3.60;;
18883;SDS011;9574;47.282;9.640;2023-11-19T00:56:56;3.43;;;2.93;;
18883;SDS011;9574;47.282;9.640;2023-11-19T00:59:23;4.43;;;2.80;;
18883;SDS011;9574;47.282;9.640;2023-11-19T01:01:50;3.50;;;2.60;;
18883;SDS011;9574;47.282;9.640;2023-11-19T01:04:17;2.53;;;2.10;;
18883;SDS011;9574;47.282;9.640;2023-11-19T01:06:44;3.37;;;2.60;;
18883;SDS011;9574;47.282;9.640;2023-11-19T01:09:11;3.57;;;2.60;;
18883;SDS011;9574;47.282;9.640;2023-11-19T01:11:38;4.50;;;2.43;;
18883;SDS011;9574;47.282;9.640;2023-11-19T01:14:06;4.60;;;2.60;;
18883;SDS011;9574;47.282;9.640;2023-11-19T01:16:33;3.33;;;2.60;;
18883;SDS011;9574;47.282;9.640;2023-11-19T01:19:00;2.27;;;2.07;;
18883;SDS011;9574;47.282;9.640;2023-11-19T01:21:29;4.43;;;2.20;;
18883;SDS011;9574;47.282;9.640;2023-11-19T01:23:57;3.37;;;3.10;;
18883;SDS011;9574;47.282;9.640;2023-11-19T01:26:24;2.37;;;2.17;;
18883;SDS011;9574;47.282;9.640;2023-11-19T01:28:51;3.67;;;2.20;;
18883;SDS011;9574;47.282;9.640;2023-11-19T01:31:20;2.43;;;2.23;;
18883;SDS011;9574;47.282;9.640;2023-11-19T01:33:46;2.33;;;2.13;;
18883;SDS011;9574;47.282;9.640;2023-11-19T01:36:13;2.10;;;1.90;;
18883;SDS011;9574;47.282;9.640;2023-11-19T01:38:40;3.77;;;1.97;;
18883;SDS011;9574;47.282;9.640;2023-11-19T01:41:08;3.10;;;2.23;;
18883;SDS011;9574;47.282;9.640;2023-11-19T01:43:36;1.83;;;1.60;;
18883;SDS011;9574;47.282;9.640;2023-11-19T01:46:04;2.50;;;1.80;;
18883;SDS011;9574;47.282;9.640;2023-11-19T01:48:36;1.63;;;1.53;;
18883;SDS011;9574;47.282;9.640;2023-11-19T01:51:06;3.37;;;2.10;;
18883;SDS011;9574;47.282;9.640;2023-11-19T01:53:34;3.30;;;3.00;;
18883;SDS011;9574;47.282;9.640;2023-11-19T01:56:03;4.40;;;2.77;;
18883;SDS011;9574;47.282;9.640;2023-11-19T01:58:31;2.37;;;2.17;;
18883;SDS011;9574;47.282;9.640;2023-11-19T02:00:59;2.83;;;1.17;;
18883;SDS011;9574;47.282;9.640;2023-11-19T02:03:29;1.87;;;1.20;;
18883;SDS011;9574;47.282;9.640;2023-11-19T02:05:59;1.83;;;1.40;;
18883;SDS011;9574;47.282;9.640;2023-11-19T02:08:26;2.03;;;1.83;;
18883;SDS011;9574;47.282;9.640;2023-11-19T02:10:54;2.17;;;1.97;;
18883;SDS011;9574;47.282;9.640;2023-11-19T02:13:22;2.00;;;1.80;;
18883;SDS011;9574;47.282;9.640;2023-11-19T02:15:50;2.53;;;2.07;;
18883;SDS011;9574;47.282;9.640;2023-11-19T02:18:17;2.40;;;2.20;;
18883;SDS011;9574;47.282;9.640;2023-11-19T02:20:48;3.20;;;2.20;;
18883;SDS011;9574;47.282;9.640;2023-11-19T02:23:17;2.60;;;2.40;;
18883;SDS011;9574;47.282;9.640;2023-11-19T02:25:47;2.30;;;2.10;;
18883;SDS011;9574;47.282;9.640;2023-11-19T02:28:21;2.27;;;1.93;;
18883;SDS011;9574;47.282;9.640;2023-11-19T02:30:49;2.50;;;2.30;;
18883;SDS011;9574;47.282;9.640;2023-11-19T02:33:16;2.20;;;2.00;;
18883;SDS011;9574;47.282;9.640;2023-11-19T02:35:43;2.70;;;2.20;;
18883;SDS011;9574;47.282;9.640;2023-11-19T02:38:10;2.30;;;2.10;;
18883;SDS011;9574;47.282;9.640;2023-11-19T02:40:39;2.17;;;1.87;;
18883;SDS011;9574;47.282;9.640;2023-11-19T02:43:06;2.30;;;1.80;;
18883;SDS011;9574;47.282;9.640;2023-11-19T02:45:35;1.80;;;1.70;;
18883;SDS011;9574;47.282;9.640;2023-11-19T02:48:02;2.70;;;1.80;;
18883;SDS011;9574;47.282;9.640;2023-11-19T02:50:31;2.10;;;1.80;;
18883;SDS011;9574;47.282;9.640;2023-11-19T02:52:58;2.23;;;1.70;;
18883;SDS011;9574;47.282;9.640;2023-11-19T02:55:26;3.60;;;1.97;;
18883;SDS011;9574;47.282;9.640;2023-11-19T02:57:56;1.50;;;1.40;;
18883;SDS011;9574;47.282;9.640;2023-11-19T03:00:24;1.27;;;1.10;;
18883;SDS011;9574;47.282;9.640;2023-11-19T03:03:00;1.87;;;1.40;;
18883;SDS011;9574;47.282;9.640;2023-11-19T03:05:35;1.63;;;1.50;;
18883;SDS011;9574;47.282;9.640;2023-11-19T03:08:02;2.57;;;1.37;;
18883;SDS011;9574;47.282;9.640;2023-11-19T03:10:29;2.10;;;1.20;;
18883;SDS011;9574;47.282;9.640;2023-11-19T03:12:56;1.70;;;1.60;;
18883;SDS011;9574;47.282;9.640;2023-11-19T03:15:24;1.63;;;1.20;;
18883;SDS011;9574;47.282;9.640;2023-11-19T03:17:51;1.30;;;1.20;;
18883;SDS011;9574;47.282;9.640;2023-11-19T03:20:20;1.63;;;1.53;;
18883;SDS011;9574;47.282;9.640;2023-11-19T03:22:48;1.43;;;1.30;;
18883;SDS011;9574;47.282;9.640;2023-11-19T03:25:16;1.93;;;1.23;;
18883;SDS011;9574;47.282;9.640;2023-11-19T03:27:43;1.40;;;1.30;;
18883;SDS011;9574;47.282;9.640;2023-11-19T03:30:10;1.40;;;1.30;;
18883;SDS011;9574;47.282;9.640;2023-11-19T03:32:37;2.07;;;1.70;;
18883;SDS011;9574;47.282;9.640;2023-11-19T03:35:05;2.03;;;1.50;;
18883;SDS011;9574;47.282;9.640;2023-11-19T03:37:35;1.50;;;1.40;;
18883;SDS011;9574;47.282;9.640;2023-11-19T03:40:02;2.20;;;1.33;;
18883;SDS011;9574;47.282;9.640;2023-11-19T03:42:31;1.73;;;1.47;;
18883;SDS011;9574;47.282;9.640;2023-11-19T03:44:58;3.40;;;1.53;;
18883;SDS011;9574;47.282;9.640;2023-11-19T03:47:25;2.13;;;1.77;;
18883;SDS011;9574;47.282;9.640;2023-11-19T03:49:52;3.70;;;1.73;;
18883;SDS011;9574;47.282;9.640;2023-11-19T03:52:19;1.67;;;1.57;;
18883;SDS011;9574;47.282;9.640;2023-11-19T03:54:47;1.90;;;1.70;;
18883;SDS011;9574;47.282;9.640;2023-11-19T03:57:14;1.70;;;1.60;;
18883;SDS011;9574;47.282;9.640;2023-11-19T03:59:41;1.63;;;1.50;;
18883;SDS011;9574;47.282;9.640;2023-11-19T04:02:09;1.73;;;1.33;;
18883;SDS011;9574;47.282;9.640;2023-11-19T04:04:36;2.23;;;1.30;;
18883;SDS011;9574;47.282;9.640;2023-11-19T04:07:04;2.03;;;1.23;;
18883;SDS011;9574;47.282;9.640;2023-11-19T04:09:31;1.37;;;1.20;;
18883;SDS011;9574;47.282;9.640;2023-11-19T04:12:00;1.47;;;1.37;;
18883;SDS011;9574;47.282;9.640;2023-11-19T04:14:27;1.83;;;1.33;;
18883;SDS011;9574;47.282;9.640;2023-11-19T04:16:54;1.60;;;1.47;;
18883;SDS011;9574;47.282;9.640;2023-11-19T04:19:21;1.50;;;1.40;;
18883;SDS011;9574;47.282;9.640;2023-11-19T04:21:49;2.57;;;1.80;;
18883;SDS011;9574;47.282;9.640;2023-11-19T04:24:17;2.43;;;1.70;;
18883;SDS011;9574;47.282;9.640;2023-11-19T04:26:44;2.00;;;1.80;;
18883;SDS011;9574;47.282;9.640;2023-11-19T04:29:13;1.80;;;1.70;;
18883;SDS011;9574;47.282;9.640;2023-11-19T04:31:42;1.77;;;1.50;;
18883;SDS011;9574;47.282;9.640;2023-11-19T04:34:09;1.53;;;1.43;;
18883;SDS011;9574;47.282;9.640;2023-11-19T04:36:37;2.07;;;1.50;;
18883;SDS011;9574;47.282;9.640;2023-11-19T04:39:04;1.70;;;1.60;;
18883;SDS011;9574;47.282;9.640;2023-11-19T04:41:34;5.70;;;1.90;;
18883;SDS011;9574;47.282;9.640;2023-11-19T04:44:01;1.97;;;1.43;;
18883;SDS011;9574;47.282;9.640;2023-11-19T04:46:30;1.60;;;1.43;;
18883;SDS011;9574;47.282;9.640;2023-11-19T04:48:57;1.40;;;1.30;;
18883;SDS011;9574;47.282;9.640;2023-11-19T04:51:24;1.53;;;1.43;;
18883;SDS011;9574;47.282;9.640;2023-11-19T04:53:51;1.73;;;1.30;;
18883;SDS011;9574;47.282;9.640;2023-11-19T04:56:18;2.40;;;1.60;;
18883;SDS011;9574;47.282;9.640;2023-11-19T04:58:47;1.87;;;1.67;;
18883;SDS011;9574;47.282;9.640;2023-11-19T05:01:14;1.43;;;1.27;;
18883;SDS011;9574;47.282;9.640;2023-11-19T05:03:44;4.77;;;1.50;;
18883;SDS011;9574;47.282;9.640;2023-11-19T05:06:11;1.77;;;1.50;;
18883;SDS011;9574;47.282;9.640;2023-11-19T05:08:38;1.97;;;1.70;;
18883;SDS011;9574;47.282;9.640;2023-11-19T05:11:05;2.30;;;2.10;;
18883;SDS011;9574;47.282;9.640;2023-11-19T05:13:32;3.73;;;2.47;;
18883;SDS011;9574;47.282;9.640;2023-11-19T05:15:59;2.63;;;2.43;;
18883;SDS011;9574;47.282;9.640;2023-11-19T05:18:26;3.00;;;2.40;;
18883;SDS011;9574;47.282;9.640;2023-11-19T05:20:55;3.20;;;2.50;;
18883;SDS011;9574;47.282;9.640;2023-11-19T05:23:21;2.40;;;2.20;;
18883;SDS011;9574;47.282;9.640;2023-11-19T05:25:48;2.70;;;2.50;;
18883;SDS011;9574;47.282;9.640;2023-11-19T05:28:16;3.87;;;2.83;;
18883;SDS011;9574;47.282;9.640;2023-11-19T05:30:43;2.40;;;1.80;;
18883;SDS011;9574;47.282;9.640;2023-11-19T05:33:10;1.83;;;1.57;;
18883;SDS011;9574;47.282;9.640;2023-11-19T05:35:37;3.23;;;2.90;;
18883;SDS011;9574;47.282;9.640;2023-11-19T05:38:05;3.63;;;2.70;;
18883;SDS011;9574;47.282;9.640;2023-11-19T05:40:32;2.50;;;2.27;;
18883;SDS011;9574;47.282;9.640;2023-11-19T05:42:59;2.63;;;2.20;;
18883;SDS011;9574;47.282;9.640;2023-11-19T05:45:26;2.33;;;2.13;;
18883;SDS011;9574;47.282;9.640;2023-11-19T05:47:53;5.90;;;3.13;;
18883;SDS011;9574;47.282;9.640;2023-11-19T05:50:39;2.77;;;2.50;;
18883;SDS011;9574;47.282;9.640;2023-11-19T05:53:07;1.93;;;1.80;;
18883;SDS011;9574;47.282;9.640;2023-11-19T05:55:35;3.93;;;3.53;;
18883;SDS011;9574;47.282;9.640;2023-11-19T05:58:10;3.60;;;3.00;;
18883;SDS011;9574;47.282;9.640;2023-11-19T06:00:37;3.13;;;2.63;;
18883;SDS011;9574;47.282;9.640;2023-11-19T06:03:05;2.83;;;2.47;;
18883;SDS011;9574;47.282;9.640;2023-11-19T06:05:33;3.60;;;2.10;;
18883;SDS011;9574;47.282;9.640;2023-11-19T06:08:00;2.13;;;1.93;;
18883;SDS011;9574;47.282;9.640;2023-11-19T06:10:28;2.20;;;2.00;;
18883;SDS011;9574;47.282;9.640;2023-11-19T06:12:57;2.20;;;2.00;;
18883;SDS011;9574;47.282;9.640;2023-11-19T06:15:24;2.13;;;1.90;;
18883;SDS011;9574;47.282;9.640;2023-11-19T06:17:51;1.97;;;1.77;;
18883;SDS011;9574;47.282;9.640;2023-11-19T06:20:19;2.70;;;2.50;;
18883;SDS011;9574;47.282;9.640;2023-11-19T06:22:46;3.03;;;2.77;;
18883;SDS011;9574;47.282;9.640;2023-11-19T06:25:13;2.03;;;1.83;;
18883;SDS011;9574;47.282;9.640;2023-11-19T06:27:42;2.53;;;2.33;;
18883;SDS011;9574;47.282;9.640;2023-11-19T06:30:09;2.30;;;2.03;;
18883;SDS011;9574;47.282;9.640;2023-11-19T06:32:37;2.13;;;2.00;;
18883;SDS011;9574;47.282;9.640;2023-11-19T06:35:05;2.43;;;1.80;;
18883;SDS011;9574;47.282;9.640;2023-11-19T06:37:32;2.10;;;1.70;;
18883;SDS011;9574;47.282;9.640;2023-11-19T06:40:00;2.30;;;1.83;;
18883;SDS011;9574;47.282;9.640;2023-11-19T06:42:28;2.67;;;1.80;;
18883;SDS011;9574;47.282;9.640;2023-11-19T06:44:56;2.47;;;2.27;;
18883;SDS011;9574;47.282;9.640;2023-11-19T06:47:25;5.43;;;2.50;;
18883;SDS011;9574;47.282;9.640;2023-11-19T06:49:52;2.57;;;2.17;;
18883;SDS011;9574;47.282;9.640;2023-11-19T06:52:20;3.13;;;2.23;;
18883;SDS011;9574;47.282;9.640;2023-11-19T06:54:47;2.63;;;2.30;;
18883;SDS011;9574;47.282;9.640;2023-11-19T06:57:14;5.33;;;2.50;;
18883;SDS011;9574;47.282;9.640;2023-11-19T06:59:41;4.00;;;2.90;;
18883;SDS011;9574;47.282;9.640;2023-11-19T07:02:10;3.50;;;2.40;;
18883;SDS011;9574;47.282;9.640;2023-11-19T07:04:37;3.07;;;2.57;;
18883;SDS011;9574;47.282;9.640;2023-11-19T07:07:04;2.13;;;1.93;;
18883;SDS011;9574;47.282;9.640;2023-11-19T07:09:31;2.23;;;1.90;;
18883;SDS011;9574;47.282;9.640;2023-11-19T07:11:58;1.97;;;1.57;;
18883;SDS011;9574;47.282;9.640;2023-11-19T07:14:26;2.73;;;2.07;;
18883;SDS011;9574;47.282;9.640;2023-11-19T07:16:53;1.93;;;1.73;;
18883;SDS011;9574;47.282;9.640;2023-11-19T07:19:22;3.20;;;1.97;;
18883;SDS011;9574;47.282;9.640;2023-11-19T07:21:49;2.27;;;1.83;;
18883;SDS011;9574;47.282;9.640;2023-11-19T07:24:16;2.43;;;2.00;;
18883;SDS011;9574;47.282;9.640;2023-11-19T07:26:43;2.30;;;1.90;;
18883;SDS011;9574;47.282;9.640;2023-11-19T07:29:12;2.70;;;2.33;;
18883;SDS011;9574;47.282;9.640;2023-11-19T07:31:40;4.97;;;2.63;;
18883;SDS011;9574;47.282;9.640;2023-11-19T07:34:07;5.90;;;3.90;;
18883;SDS011;9574;47.282;9.640;2023-11-19T07:36:35;4.23;;;3.20;;
18883;SDS011;9574;47.282;9.640;2023-11-19T07:39:03;6.23;;;3.47;;
18883;SDS011;9574;47.282;9.640;2023-11-19T07:41:30;5.70;;;3.33;;
18883;SDS011;9574;47.282;9.640;2023-11-19T07:43:57;6.37;;;3.80;;
18883;SDS011;9574;47.282;9.640;2023-11-19T07:46:24;3.73;;;3.20;;
18883;SDS011;9574;47.282;9.640;2023-11-19T07:48:52;5.10;;;3.63;;
18883;SDS011;9574;47.282;9.640;2023-11-19T07:51:19;7.23;;;4.70;;
18883;SDS011;9574;47.282;9.640;2023-11-19T07:53:48;6.93;;;4.60;;
18883;SDS011;9574;47.282;9.640;2023-11-19T07:56:15;5.23;;;3.70;;
18883;SDS011;9574;47.282;9.640;2023-11-19T07:58:42;4.90;;;3.63;;
18883;SDS011;9574;47.282;9.640;2023-11-19T08:01:09;4.43;;;3.37;;
18883;SDS011;9574;47.282;9.640;2023-11-19T08:03:36;4.13;;;3.33;;
18883;SDS011;9574;47.282;9.640;2023-11-19T08:06:03;4.60;;;3.57;;
18883;SDS011;9574;47.282;9.640;2023-11-19T08:08:32;5.83;;;3.50;;
18883;SDS011;9574;47.282;9.640;2023-11-19T08:11:01;3.90;;;3.07;;
18883;SDS011;9574;47.282;9.640;2023-11-19T08:13:28;5.40;;;4.67;;
18883;SDS011;9574;47.282;9.640;2023-11-19T08:15:56;6.00;;;4.60;;
18883;SDS011;9574;47.282;9.640;2023-11-19T08:18:23;5.63;;;4.60;;
18883;SDS011;9574;47.282;9.640;2023-11-19T08:20:50;4.93;;;4.03;;
18883;SDS011;9574;47.282;9.640;2023-11-19T08:23:18;5.97;;;4.40;;
18883;SDS011;9574;47.282;9.640;2023-11-19T08:25:45;5.20;;;3.87;;
18883;SDS011;9574;47.282;9.640;2023-11-19T08:28:14;4.20;;;3.73;;
18883;SDS011;9574;47.282;9.640;2023-11-19T08:30:41;7.07;;;4.27;;
18883;SDS011;9574;47.282;9.640;2023-11-19T08:33:09;6.43;;;4.20;;
18883;SDS011;9574;47.282;9.640;2023-11-19T08:35:36;8.20;;;5.73;;
18883;SDS011;9574;47.282;9.640;2023-11-19T08:38:03;8.17;;;5.77;;
18883;SDS011;9574;47.282;9.640;2023-11-19T08:40:30;9.50;;;6.73;;
18883;SDS011;9574;47.282;9.640;2023-11-19T08:42:57;7.20;;;5.80;;
18883;SDS011;9574;47.282;9.640;2023-11-19T08:45:26;9.30;;;6.23;;
18883;SDS011;9574;47.282;9.640;2023-11-19T08:47:52;7.97;;;6.30;;
18883;SDS011;9574;47.282;9.640;2023-11-19T08:50:20;10.47;;;6.00;;
18883;SDS011;9574;47.282;9.640;2023-11-19T08:52:47;10.03;;;6.17;;
18883;SDS011;9574;47.282;9.640;2023-11-19T08:55:14;11.53;;;6.23;;
18883;SDS011;9574;47.282;9.640;2023-11-19T08:57:41;9.00;;;5.57;;
18883;SDS011;9574;47.282;9.640;2023-11-19T09:00:08;6.70;;;5.37;;
18883;SDS011;9574;47.282;9.640;2023-11-19T09:02:40;7.00;;;5.40;;
18883;SDS011;9574;47.282;9.640;2023-11-19T09:05:08;8.37;;;5.00;;
18883;SDS011;9574;47.282;9.640;2023-11-19T09:07:35;8.03;;;4.53;;
18883;SDS011;9574;47.282;9.640;2023-11-19T09:10:02;7.40;;;4.60;;
18883;SDS011;9574;47.282;9.640;2023-11-19T09:12:30;18.77;;;13.43;;
18883;SDS011;9574;47.282;9.640;2023-11-19T09:14:57;9.60;;;7.00;;
18883;SDS011;9574;47.282;9.640;2023-11-19T09:17:24;11.90;;;8.60;;
18883;SDS011;9574;47.282;9.640;2023-11-19T09:19:52;11.03;;;6.87;;
18883;SDS011;9574;47.282;9.640;2023-11-19T09:22:19;10.37;;;7.37;;
18883;SDS011;9574;47.282;9.640;2023-11-19T09:24:46;8.80;;;6.97;;
18883;SDS011;9574;47.282;9.640;2023-11-19T09:27:13;9.37;;;6.53;;
18883;SDS011;9574;47.282;9.640;2023-11-19T09:29:40;9.57;;;6.57;;
18883;SDS011;9574;47.282;9.640;2023-11-19T09:32:08;8.80;;;6.77;;
18883;SDS011;9574;47.282;9.640;2023-11-19T09:34:35;10.87;;;7.57;;
18883;SDS011;9574;47.282;9.640;2023-11-19T09:37:03;8.23;;;6.17;;
18883;SDS011;9574;47.282;9.640;2023-11-19T09:39:30;9.57;;;7.10;;
18883;SDS011;9574;47.282;9.640;2023-11-19T09:41:57;8.90;;;6.70;;
18883;SDS011;9574;47.282;9.640;2023-11-19T09:44:25;9.67;;;5.80;;
18883;SDS011;9574;47.282;9.640;2023-11-19T09:46:52;8.20;;;6.10;;
18883;SDS011;9574;47.282;9.640;2023-11-19T09:49:21;13.17;;;6.07;;
18883;SDS011;9574;47.282;9.640;2023-11-19T09:51:49;8.03;;;5.43;;
18883;SDS011;9574;47.282;9.640;2023-11-19T09:54:17;7.73;;;6.30;;
18883;SDS011;9574;47.282;9.640;2023-11-19T09:56:44;11.57;;;8.20;;
18883;SDS011;9574;47.282;9.640;2023-11-19T09:59:12;12.47;;;8.27;;
18883;SDS011;9574;47.282;9.640;2023-11-19T10:01:39;11.37;;;7.50;;
18883;SDS011;9574;47.282;9.640;2023-11-19T10:04:06;10.97;;;7.67;;
18883;SDS011;9574;47.282;9.640;2023-11-19T10:06:34;9.67;;;7.00;;
18883;SDS011;9574;47.282;9.640;2023-11-19T10:09:02;10.33;;;6.67;;
18883;SDS011;9574;47.282;9.640;2023-11-19T10:11:31;9.40;;;6.60;;
18883;SDS011;9574;47.282;9.640;2023-11-19T10:13:58;10.37;;;7.03;;
18883;SDS011;9574;47.282;9.640;2023-11-19T10:16:28;8.97;;;6.47;;
18883;SDS011;9574;47.282;9.640;2023-11-19T10:18:57;11.13;;;6.80;;
18883;SDS011;9574;47.282;9.640;2023-11-19T10:21:24;9.57;;;7.43;;
18883;SDS011;9574;47.282;9.640;2023-11-19T10:23:53;11.07;;;6.57;;
18883;SDS011;9574;47.282;9.640;2023-11-19T10:26:22;12.30;;;8.77;;
18883;SDS011;9574;47.282;9.640;2023-11-19T10:28:51;12.70;;;8.47;;
18883;SDS011;9574;47.282;9.640;2023-11-19T10:31:19;11.20;;;7.53;;
18883;SDS011;9574;47.282;9.640;2023-11-19T10:33:50;10.10;;;7.47;;
18883;SDS011;9574;47.282;9.640;2023-11-19T10:36:17;12.97;;;10.50;;
18883;SDS011;9574;47.282;9.640;2023-11-19T10:38:51;10.70;;;6.93;;
18883;SDS011;9574;47.282;9.640;2023-11-19T10:41:28;17.50;;;11.47;;
18883;SDS011;9574;47.282;9.640;2023-11-19T10:43:57;12.43;;;8.40;;
18883;SDS011;9574;47.282;9.640;2023-11-19T10:46:35;11.53;;;7.67;;
18883;SDS011;9574;47.282;9.640;2023-11-19T10:49:03;10.23;;;7.47;;
18883;SDS011;9574;47.282;9.640;2023-11-19T10:51:31;11.00;;;7.60;;
18883;SDS011;9574;47.282;9.640;2023-11-19T10:54:00;8.47;;;6.90;;
18883;SDS011;9574;47.282;9.640;2023-11-19T10:56:31;7.70;;;6.30;;
18883;SDS011;9574;47.282;9.640;2023-11-19T10:58:58;11.50;;;7.03;;
18883;SDS011;9574;47.282;9.640;2023-11-19T11:01:26;9.97;;;7.10;;
18883;SDS011;9574;47.282;9.640;2023-11-19T11:04:00;9.10;;;5.90;;
18883;SDS011;9574;47.282;9.640;2023-11-19T11:06:28;9.33;;;6.13;;
18883;SDS011;9574;47.282;9.640;2023-11-19T11:08:56;8.43;;;5.97;;
18883;SDS011;9574;47.282;9.640;2023-11-19T11:11:24;8.23;;;6.10;;
18883;SDS011;9574;47.282;9.640;2023-11-19T11:13:52;10.70;;;6.67;;
18883;SDS011;9574;47.282;9.640;2023-11-19T11:16:22;13.03;;;8.33;;
18883;SDS011;9574;47.282;9.640;2023-11-19T11:18:51;9.07;;;6.20;;
18883;SDS011;9574;47.282;9.640;2023-11-19T11:21:20;7.13;;;5.67;;
18883;SDS011;9574;47.282;9.640;2023-11-19T11:23:56;9.77;;;5.60;;
18883;SDS011;9574;47.282;9.640;2023-11-19T11:26:42;10.30;;;6.60;;
18883;SDS011;9574;47.282;9.640;2023-11-19T11:29:26;9.90;;;7.47;;
18883;SDS011;9574;47.282;9.640;2023-11-19T11:32:03;6.30;;;4.13;;
18883;SDS011;9574;47.282;9.640;2023-11-19T11:34:53;9.83;;;7.57;;
18883;SDS011;9574;47.282;9.640;2023-11-19T11:37:37;10.37;;;6.20;;
18883;SDS011;9574;47.282;9.640;2023-11-19T11:40:13;7.13;;;5.23;;
18883;SDS011;9574;47.282;9.640;2023-11-19T11:42:41;8.17;;;4.17;;
18883;SDS011;9574;47.282;9.640;2023-11-19T11:45:08;4.53;;;3.27;;
18883;SDS011;9574;47.282;9.640;2023-11-19T11:50:47;4.37;;;2.57;;
18883;SDS011;9574;47.282;9.640;2023-11-19T11:53:22;5.00;;;3.50;;
18883;SDS011;9574;47.282;9.640;2023-11-19T11:55:54;3.77;;;2.93;;
18883;SDS011;9574;47.282;9.640;2023-11-19T11:58:27;2.87;;;2.57;;
18883;SDS011;9574;47.282;9.640;2023-11-19T12:00:57;5.53;;;3.10;;
18883;SDS011;9574;47.282;9.640;2023-11-19T12:03:28;6.50;;;3.50;;
18883;SDS011;9574;47.282;9.640;2023-11-19T12:05:56;12.47;;;5.53;;
18883;SDS011;9574;47.282;9.640;2023-11-19T12:08:25;15.60;;;6.60;;
18883;SDS011;9574;47.282;9.640;2023-11-19T12:10:53;16.07;;;7.40;;
18883;SDS011;9574;47.282;9.640;2023-11-19T12:13:23;14.00;;;7.03;;
18883;SDS011;9574;47.282;9.640;2023-11-19T12:16:09;14.03;;;6.17;;
18883;SDS011;9574;47.282;9.640;2023-11-19T12:18:39;13.80;;;7.90;;
18883;SDS011;9574;47.282;9.640;2023-11-19T12:21:07;8.37;;;5.23;;
18883;SDS011;9574;47.282;9.640;2023-11-19T12:23:44;8.67;;;5.33;;
18883;SDS011;9574;47.282;9.640;2023-11-19T12:29:02;11.67;;;6.73;;
18883;SDS011;9574;47.282;9.640;2023-11-19T12:31:33;12.43;;;6.47;;
18883;SDS011;9574;47.282;9.640;2023-11-19T12:34:07;8.57;;;6.23;;
18883;SDS011;9574;47.282;9.640;2023-11-19T12:36:36;7.10;;;5.20;;
18883;SDS011;9574;47.282;9.640;2023-11-19T12:39:05;7.33;;;5.33;;
18883;SDS011;9574;47.282;9.640;2023-11-19T12:41:33;8.93;;;5.77;;
18883;SDS011;9574;47.282;9.640;2023-11-19T12:44:19;8.37;;;5.13;;
18883;SDS011;9574;47.282;9.640;2023-11-19T12:46:46;7.20;;;5.40;;
18883;SDS011;9574;47.282;9.640;2023-11-19T12:49:26;7.23;;;4.63;;
18883;SDS011;9574;47.282;9.640;2023-11-19T12:51:53;6.77;;;5.23;;
18883;SDS011;9574;47.282;9.640;2023-11-19T12:54:31;9.77;;;6.23;;
18883;SDS011;9574;47.282;9.640;2023-11-19T12:56:58;9.87;;;6.50;;
18883;SDS011;9574;47.282;9.640;2023-11-19T12:59:25;7.30;;;5.53;;
18883;SDS011;9574;47.282;9.640;2023-11-19T13:01:53;9.00;;;6.03;;
18883;SDS011;9574;47.282;9.640;2023-11-19T13:04:21;12.63;;;6.87;;
18883;SDS011;9574;47.282;9.640;2023-11-19T13:06:50;9.97;;;7.73;;
18883;SDS011;9574;47.282;9.640;2023-11-19T13:09:24;9.17;;;7.93;;
18883;SDS011;9574;47.282;9.640;2023-11-19T13:11:51;11.10;;;7.37;;
18883;SDS011;9574;47.282;9.640;2023-11-19T13:14:19;8.60;;;6.60;;
18883;SDS011;9574;47.282;9.640;2023-11-19T13:16:46;7.33;;;6.13;;
18883;SDS011;9574;47.282;9.640;2023-11-19T13:19:14;9.73;;;8.07;;
18883;SDS011;9574;47.282;9.640;2023-11-19T13:21:43;10.30;;;7.80;;
18883;SDS011;9574;47.282;9.640;2023-11-19T13:24:13;8.10;;;6.40;;
18883;SDS011;9574;47.282;9.640;2023-11-19T13:26:40;9.97;;;6.73;;
18883;SDS011;9574;47.282;9.640;2023-11-19T13:29:07;12.97;;;8.43;;
18883;SDS011;9574;47.282;9.640;2023-11-19T13:31:35;10.90;;;8.13;;
18883;SDS011;9574;47.282;9.640;2023-11-19T13:34:02;12.77;;;8.70;;
18883;SDS011;9574;47.282;9.640;2023-11-19T13:36:32;10.10;;;6.73;;
18883;SDS011;9574;47.282;9.640;2023-11-19T13:38:59;12.10;;;6.60;;
18883;SDS011;9574;47.282;9.640;2023-11-19T13:41:27;11.30;;;7.43;;
18883;SDS011;9574;47.282;9.640;2023-11-19T13:43:54;9.13;;;7.13;;
18883;SDS011;9574;47.282;9.640;2023-11-19T13:46:21;10.90;;;7.33;;
18883;SDS011;9574;47.282;9.640;2023-11-19T13:48:48;9.67;;;7.20;;
18883;SDS011;9574;47.282;9.640;2023-11-19T13:51:15;9.50;;;6.83;;
18883;SDS011;9574;47.282;9.640;2023-11-19T13:53:42;11.30;;;6.93;;
18883;SDS011;9574;47.282;9.640;2023-11-19T13:56:09;9.63;;;6.50;;
18883;SDS011;9574;47.282;9.640;2023-11-19T13:58:38;10.43;;;6.53;;
18883;SDS011;9574;47.282;9.640;2023-11-19T14:01:05;10.17;;;6.90;;
18883;SDS011;9574;47.282;9.640;2023-11-19T14:03:33;9.67;;;6.83;;
18883;SDS011;9574;47.282;9.640;2023-11-19T14:06:00;11.43;;;7.20;;
18883;SDS011;9574;47.282;9.640;2023-11-19T14:08:27;13.17;;;7.67;;
18883;SDS011;9574;47.282;9.640;2023-11-19T14:10:54;11.37;;;8.37;;
18883;SDS011;9574;47.282;9.640;2023-11-19T14:13:22;10.27;;;8.50;;
18883;SDS011;9574;47.282;9.640;2023-11-19T14:15:50;15.03;;;9.67;;
18883;SDS011;9574;47.282;9.640;2023-11-19T14:18:17;13.17;;;9.63;;
18883;SDS011;9574;47.282;9.640;2023-11-19T14:20:44;11.57;;;9.33;;
18883;SDS011;9574;47.282;9.640;2023-11-19T14:23:12;12.07;;;9.50;;
18883;SDS011;9574;47.282;9.640;2023-11-19T14:25:39;12.67;;;9.20;;
18883;SDS011;9574;47.282;9.640;2023-11-19T14:28:06;13.83;;;9.77;;
18883;SDS011;9574;47.282;9.640;2023-11-19T14:30:33;9.90;;;7.70;;
18883;SDS011;9574;47.282;9.640;2023-11-19T14:33:01;11.67;;;7.87;;
18883;SDS011;9574;47.282;9.640;2023-11-19T14:35:30;9.33;;;7.80;;
18883;SDS011;9574;47.282;9.640;2023-11-19T14:37:57;11.30;;;8.53;;
18883;SDS011;9574;47.282;9.640;2023-11-19T14:40:25;10.53;;;8.57;;
18883;SDS011;9574;47.282;9.640;2023-11-19T14:42:52;10.37;;;8.07;;
18883;SDS011;9574;47.282;9.640;2023-11-19T14:45:19;12.33;;;8.43;;
18883;SDS011;9574;47.282;9.640;2023-11-19T14:47:47;10.57;;;7.67;;
18883;SDS011;9574;47.282;9.640;2023-11-19T14:50:15;11.57;;;8.10;;
18883;SDS011;9574;47.282;9.640;2023-11-19T14:52:45;11.63;;;8.40;;
18883;SDS011;9574;47.282;9.640;2023-11-19T14:55:12;9.83;;;8.13;;
18883;SDS011;9574;47.282;9.640;2023-11-19T14:57:39;13.17;;;9.07;;
18883;SDS011;9574;47.282;9.640;2023-11-19T15:00:07;15.30;;;10.23;;
18883;SDS011;9574;47.282;9.640;2023-11-19T15:02:38;14.43;;;9.83;;
18883;SDS011;9574;47.282;9.640;2023-11-19T15:05:06;13.93;;;10.33;;
18883;SDS011;9574;47.282;9.640;2023-11-19T15:07:37;13.03;;;8.77;;
18883;SDS011;9574;47.282;9.640;2023-11-19T15:10:05;13.93;;;9.60;;